sensor_id;sensor_type;location;lat;lon;timestamp;pressure;altitude;pressure_sealevel;temperature;humidity
73063;BME280;61230;46.328;19.972;2023-10-09T00:00:15;101569.91;;;8.83;93.79
73063;BME280;61230;46.328;19.972;2023-10-09T00:03:02;101565.84;;;8.79;92.97
73063;BME280;61230;46.328;19.972;2023-10-09T00:05:32;101575.41;;;8.80;90.79
73063;BME280;61230;46.328;19.972;2023-10-09T00:08:26;101571.72;;;8.82;88.02
73063;BME280;61230;46.328;19.972;2023-10-09T00:11:00;101569.09;;;8.82;86.93
73063;BME280;61230;46.328;19.972;2023-10-09T00:13:44;101580.72;;;8.78;85.20
73063;BME280;61230;46.328;19.972;2023-10-09T00:16:28;101584.84;;;8.82;83.98
73063;BME280;61230;46.328;19.972;2023-10-09T00:19:15;101596.28;;;8.81;82.61
73063;BME280;61230;46.328;19.972;2023-10-09T00:21:57;101598.25;;;8.78;80.30
73063;BME280;61230;46.328;19.972;2023-10-09T00:24:28;101601.34;;;8.97;78.70
73063;BME280;61230;46.328;19.972;2023-10-09T00:26:56;101591.59;;;8.99;77.21
73063;BME280;61230;46.328;19.972;2023-10-09T00:29:30;101575.84;;;8.99;76.00
73063;BME280;61230;46.328;19.972;2023-10-09T00:32:02;101566.00;;;9.02;74.30
73063;BME280;61230;46.328;19.972;2023-10-09T00:34:41;101577.03;;;9.07;72.92
73063;BME280;61230;46.328;19.972;2023-10-09T00:37:09;101561.47;;;9.04;72.46
73063;BME280;61230;46.328;19.972;2023-10-09T00:39:44;101563.25;;;9.04;71.60
73063;BME280;61230;46.328;19.972;2023-10-09T00:42:11;101482.75;;;8.52;71.52
73063;BME280;61230;46.328;19.972;2023-10-09T00:44:49;101558.00;;;9.04;70.72
73063;BME280;61230;46.328;19.972;2023-10-09T00:47:17;101544.56;;;8.96;71.13
73063;BME280;61230;46.328;19.972;2023-10-09T00:49:54;101547.91;;;8.98;71.98
73063;BME280;61230;46.328;19.972;2023-10-09T00:52:31;101556.09;;;8.93;69.12
73063;BME280;61230;46.328;19.972;2023-10-09T00:55:00;101558.22;;;9.01;74.10
73063;BME280;61230;46.328;19.972;2023-10-09T00:57:34;101552.31;;;8.97;76.72
73063;BME280;61230;46.328;19.972;2023-10-09T01:00:05;101555.66;;;8.87;76.47
73063;BME280;61230;46.328;19.972;2023-10-09T01:02:40;101553.97;;;8.86;71.35
73063;BME280;61230;46.328;19.972;2023-10-09T01:05:11;101554.72;;;8.88;74.99
73063;BME280;61230;46.328;19.972;2023-10-09T01:07:48;101550.16;;;8.64;78.15
73063;BME280;61230;46.328;19.972;2023-10-09T01:10:16;101503.72;;;8.52;76.01
73063;BME280;61230;46.328;19.972;2023-10-09T01:12:44;101559.72;;;8.65;79.88
73063;BME280;61230;46.328;19.972;2023-10-09T01:15:14;101564.41;;;8.60;72.66
73063;BME280;61230;46.328;19.972;2023-10-09T01:18:07;101518.50;;;8.41;80.11
73063;BME280;61230;46.328;19.972;2023-10-09T01:20:35;101559.22;;;8.46;81.02
73063;BME280;61230;46.328;19.972;2023-10-09T01:23:10;101562.28;;;8.53;81.41
73063;BME280;61230;46.328;19.972;2023-10-09T01:25:38;101558.28;;;8.47;81.36
73063;BME280;61230;46.328;19.972;2023-10-09T01:28:13;101556.06;;;8.41;80.45
73063;BME280;61230;46.328;19.972;2023-10-09T01:30:43;101559.06;;;8.35;80.07
73063;BME280;61230;46.328;19.972;2023-10-09T01:33:13;101559.44;;;8.29;80.65
73063;BME280;61230;46.328;19.972;2023-10-09T01:35:50;101563.56;;;8.33;79.87
73063;BME280;61230;46.328;19.972;2023-10-09T01:38:23;101547.19;;;8.16;80.60
73063;BME280;61230;46.328;19.972;2023-10-09T01:40:59;101563.38;;;8.22;81.32
73063;BME280;61230;46.328;19.972;2023-10-09T01:43:34;101561.69;;;8.21;80.66
73063;BME280;61230;46.328;19.972;2023-10-09T01:46:02;101568.50;;;7.97;81.76
73063;BME280;61230;46.328;19.972;2023-10-09T01:48:33;101565.50;;;8.03;82.78
73063;BME280;61230;46.328;19.972;2023-10-09T01:51:14;101571.19;;;7.95;83.00
73063;BME280;61230;46.328;19.972;2023-10-09T01:53:44;101577.09;;;7.99;83.56
73063;BME280;61230;46.328;19.972;2023-10-09T01:56:15;101523.41;;;7.64;81.65
73063;BME280;61230;46.328;19.972;2023-10-09T01:58:43;101583.88;;;7.89;82.26
73063;BME280;61230;46.328;19.972;2023-10-09T02:01:15;101571.75;;;7.86;82.27
73063;BME280;61230;46.328;19.972;2023-10-09T02:03:43;101566.53;;;7.72;84.04
73063;BME280;61230;46.328;19.972;2023-10-09T02:06:13;101565.50;;;7.61;84.92
73063;BME280;61230;46.328;19.972;2023-10-09T02:08:55;101563.66;;;7.48;87.52
73063;BME280;61230;46.328;19.972;2023-10-09T02:11:23;101567.28;;;7.32;89.18
73063;BME280;61230;46.328;19.972;2023-10-09T02:14:09;101570.38;;;7.38;89.47
73063;BME280;61230;46.328;19.972;2023-10-09T02:16:51;101564.19;;;7.39;89.25
73063;BME280;61230;46.328;19.972;2023-10-09T02:19:33;101559.88;;;7.38;88.33
73063;BME280;61230;46.328;19.972;2023-10-09T02:22:02;101559.44;;;7.46;88.54
73063;BME280;61230;46.328;19.972;2023-10-09T02:24:40;101566.81;;;7.53;86.17
73063;BME280;61230;46.328;19.972;2023-10-09T02:27:26;101556.63;;;7.35;85.71
73063;BME280;61230;46.328;19.972;2023-10-09T02:30:15;101559.72;;;7.41;85.97
73063;BME280;61230;46.328;19.972;2023-10-09T02:32:43;101561.12;;;6.89;86.74
73063;BME280;61230;46.328;19.972;2023-10-09T02:35:12;101537.28;;;6.93;87.76
73063;BME280;61230;46.328;19.972;2023-10-09T02:38:09;101549.38;;;7.10;87.82
73063;BME280;61230;46.328;19.972;2023-10-09T02:40:42;101553.41;;;7.16;87.64
73063;BME280;61230;46.328;19.972;2023-10-09T02:43:29;101504.28;;;6.77;88.35
73063;BME280;61230;46.328;19.972;2023-10-09T02:46:08;101557.06;;;7.13;88.28
73063;BME280;61230;46.328;19.972;2023-10-09T02:48:41;101557.25;;;7.24;89.40
73063;BME280;61230;46.328;19.972;2023-10-09T02:51:12;101562.63;;;7.37;89.46
73063;BME280;61230;46.328;19.972;2023-10-09T02:54:03;101566.69;;;7.27;89.81
73063;BME280;61230;46.328;19.972;2023-10-09T02:56:51;101563.53;;;7.36;88.17
73063;BME280;61230;46.328;19.972;2023-10-09T02:59:34;101560.84;;;7.37;87.74
73063;BME280;61230;46.328;19.972;2023-10-09T03:02:04;101560.47;;;7.43;88.29
73063;BME280;61230;46.328;19.972;2023-10-09T03:04:32;101515.37;;;7.10;89.71
73063;BME280;61230;46.328;19.972;2023-10-09T03:07:00;101563.28;;;7.40;89.89
73063;BME280;61230;46.328;19.972;2023-10-09T03:09:28;101558.69;;;7.44;88.53
73063;BME280;61230;46.328;19.972;2023-10-09T03:11:58;101559.63;;;7.43;87.47
73063;BME280;61230;46.328;19.972;2023-10-09T03:14:40;101573.75;;;7.40;88.58
73063;BME280;61230;46.328;19.972;2023-10-09T03:17:09;101564.19;;;7.25;89.53
73063;BME280;61230;46.328;19.972;2023-10-09T03:19:41;101520.41;;;6.99;89.41
73063;BME280;61230;46.328;19.972;2023-10-09T03:22:11;101556.31;;;7.11;89.62
73063;BME280;61230;46.328;19.972;2023-10-09T03:24:40;101548.06;;;7.03;88.85
73063;BME280;61230;46.328;19.972;2023-10-09T03:27:18;101553.53;;;6.84;90.79
73063;BME280;61230;46.328;19.972;2023-10-09T03:29:46;101528.31;;;6.54;91.60
73063;BME280;61230;46.328;19.972;2023-10-09T03:32:18;101544.16;;;6.51;92.83
73063;BME280;61230;46.328;19.972;2023-10-09T03:34:47;101530.06;;;6.53;93.39
73063;BME280;61230;46.328;19.972;2023-10-09T03:37:18;101519.59;;;6.69;92.48
73063;BME280;61230;46.328;19.972;2023-10-09T03:40:02;101517.66;;;6.57;93.13
73063;BME280;61230;46.328;19.972;2023-10-09T03:42:33;101517.22;;;6.64;93.00
73063;BME280;61230;46.328;19.972;2023-10-09T03:45:04;101472.84;;;6.33;92.66
73063;BME280;61230;46.328;19.972;2023-10-09T03:47:41;101525.69;;;6.83;93.03
73063;BME280;61230;46.328;19.972;2023-10-09T03:50:16;101516.81;;;6.86;92.70
73063;BME280;61230;46.328;19.972;2023-10-09T03:53:05;101518.47;;;6.73;93.51
73063;BME280;61230;46.328;19.972;2023-10-09T03:55:35;101517.38;;;6.77;93.95
73063;BME280;61230;46.328;19.972;2023-10-09T03:58:06;101498.56;;;6.70;91.66
73063;BME280;61230;46.328;19.972;2023-10-09T04:00:34;101505.56;;;6.70;91.56
73063;BME280;61230;46.328;19.972;2023-10-09T04:03:17;101498.94;;;6.78;91.98
73063;BME280;61230;46.328;19.972;2023-10-09T04:05:44;101434.72;;;6.45;92.53
73063;BME280;61230;46.328;19.972;2023-10-09T04:08:13;101468.69;;;6.74;91.98
73063;BME280;61230;46.328;19.972;2023-10-09T04:10:57;101473.81;;;6.76;92.92
73063;BME280;61230;46.328;19.972;2023-10-09T04:13:31;101464.31;;;6.15;94.81
73063;BME280;61230;46.328;19.972;2023-10-09T04:16:03;101482.75;;;5.81;96.90
73063;BME280;61230;46.328;19.972;2023-10-09T04:18:51;101405.00;;;5.70;96.64
73063;BME280;61230;46.328;19.972;2023-10-09T04:21:19;101383.03;;;5.12;98.10
73063;BME280;61230;46.328;19.972;2023-10-09T04:23:55;101460.56;;;5.90;98.91
73063;BME280;61230;46.328;19.972;2023-10-09T04:26:44;101421.78;;;5.66;97.90
73063;BME280;61230;46.328;19.972;2023-10-09T04:29:14;101471.91;;;6.04;97.23
73063;BME280;61230;46.328;19.972;2023-10-09T04:31:55;101485.88;;;5.88;98.61
73063;BME280;61230;46.328;19.972;2023-10-09T04:34:23;101485.66;;;5.92;97.82
73063;BME280;61230;46.328;19.972;2023-10-09T04:36:56;101492.06;;;5.87;96.41
73063;BME280;61230;46.328;19.972;2023-10-09T04:39:28;101479.09;;;6.46;96.30
73063;BME280;61230;46.328;19.972;2023-10-09T04:41:59;101420.91;;;6.43;94.33
73063;BME280;61230;46.328;19.972;2023-10-09T04:44:46;101413.41;;;6.66;94.06
73063;BME280;61230;46.328;19.972;2023-10-09T04:47:30;101469.66;;;7.16;94.19
73063;BME280;61230;46.328;19.972;2023-10-09T04:50:08;101469.03;;;7.12;91.08
73063;BME280;61230;46.328;19.972;2023-10-09T04:52:42;101471.41;;;6.87;91.06
73063;BME280;61230;46.328;19.972;2023-10-09T04:55:10;101425.44;;;6.69;92.14
73063;BME280;61230;46.328;19.972;2023-10-09T04:57:45;101473.50;;;7.10;91.66
73063;BME280;61230;46.328;19.972;2023-10-09T05:00:15;101472.19;;;7.31;91.63
73063;BME280;61230;46.328;19.972;2023-10-09T05:02:54;101466.41;;;7.40;91.47
73063;BME280;61230;46.328;19.972;2023-10-09T05:05:28;101479.66;;;7.51;93.99
73063;BME280;61230;46.328;19.972;2023-10-09T05:08:17;101452.16;;;7.59;93.50
73063;BME280;61230;46.328;19.972;2023-10-09T05:10:58;101418.88;;;7.32;94.38
73063;BME280;61230;46.328;19.972;2023-10-09T05:13:30;101472.34;;;7.71;93.91
73063;BME280;61230;46.328;19.972;2023-10-09T05:16:16;101486.94;;;7.75;92.56
73063;BME280;61230;46.328;19.972;2023-10-09T05:18:48;101482.31;;;7.78;91.62
73063;BME280;61230;46.328;19.972;2023-10-09T05:21:37;101438.50;;;7.53;91.09
73063;BME280;61230;46.328;19.972;2023-10-09T05:24:10;101448.06;;;7.55;92.19
73063;BME280;61230;46.328;19.972;2023-10-09T05:26:44;101424.50;;;7.55;92.98
73063;BME280;61230;46.328;19.972;2023-10-09T05:29:22;101478.47;;;7.84;91.09
73063;BME280;61230;46.328;19.972;2023-10-09T05:32:00;101417.19;;;7.60;90.39
73063;BME280;61230;46.328;19.972;2023-10-09T05:34:32;101411.56;;;7.66;88.40
73063;BME280;61230;46.328;19.972;2023-10-09T05:37:19;101456.53;;;7.99;87.60
73063;BME280;61230;46.328;19.972;2023-10-09T05:39:53;101462.59;;;8.14;85.68
73063;BME280;61230;46.328;19.972;2023-10-09T05:42:31;101460.81;;;8.14;85.56
73063;BME280;61230;46.328;19.972;2023-10-09T05:45:13;101454.31;;;8.20;84.07
73063;BME280;61230;46.328;19.972;2023-10-09T05:47:50;101452.78;;;8.30;84.53
73063;BME280;61230;46.328;19.972;2023-10-09T05:50:33;101414.44;;;8.15;84.04
73063;BME280;61230;46.328;19.972;2023-10-09T05:53:02;101453.56;;;8.44;83.61
73063;BME280;61230;46.328;19.972;2023-10-09T05:55:31;101463.87;;;8.60;84.30
73063;BME280;61230;46.328;19.972;2023-10-09T05:58:08;101464.84;;;8.72;84.22
73063;BME280;61230;46.328;19.972;2023-10-09T06:00:54;101460.63;;;8.69;85.14
73063;BME280;61230;46.328;19.972;2023-10-09T06:03:49;101464.22;;;10.51;100.00
73063;BME280;61230;46.328;19.972;2023-10-09T06:06:21;101459.94;;;11.74;96.81
73063;BME280;61230;46.328;19.972;2023-10-09T06:09:06;101441.09;;;11.78;91.43
73063;BME280;61230;46.328;19.972;2023-10-09T06:11:48;101444.56;;;11.79;90.65
73063;BME280;61230;46.328;19.972;2023-10-09T06:14:19;101455.19;;;11.99;87.27
73063;BME280;61230;46.328;19.972;2023-10-09T06:17:12;101413.56;;;11.71;87.35
73063;BME280;61230;46.328;19.972;2023-10-09T06:19:40;101467.87;;;12.17;83.91
73063;BME280;61230;46.328;19.972;2023-10-09T06:22:11;101456.72;;;12.13;85.53
73063;BME280;61230;46.328;19.972;2023-10-09T06:24:57;101457.34;;;12.99;84.71
73063;BME280;61230;46.328;19.972;2023-10-09T06:27:35;101422.25;;;12.26;79.33
73063;BME280;61230;46.328;19.972;2023-10-09T06:30:04;101450.47;;;13.08;82.89
73063;BME280;61230;46.328;19.972;2023-10-09T06:32:42;101448.38;;;11.97;73.73
73063;BME280;61230;46.328;19.972;2023-10-09T06:35:23;101403.03;;;11.27;82.30
73063;BME280;61230;46.328;19.972;2023-10-09T06:37:59;101412.50;;;13.09;80.15
73063;BME280;61230;46.328;19.972;2023-10-09T06:40:38;101413.84;;;12.00;73.52
73063;BME280;61230;46.328;19.972;2023-10-09T06:43:18;101450.37;;;12.98;81.72
73063;BME280;61230;46.328;19.972;2023-10-09T06:45:56;101456.09;;;13.03;78.87
73063;BME280;61230;46.328;19.972;2023-10-09T06:48:46;101462.09;;;13.56;78.86
73063;BME280;61230;46.328;19.972;2023-10-09T06:51:24;101416.44;;;12.32;73.94
73063;BME280;61230;46.328;19.972;2023-10-09T06:53:56;101451.03;;;13.11;77.07
73063;BME280;61230;46.328;19.972;2023-10-09T06:56:28;101398.63;;;12.45;72.72
73063;BME280;61230;46.328;19.972;2023-10-09T06:59:04;101449.25;;;12.71;73.29
73063;BME280;61230;46.328;19.972;2023-10-09T07:01:32;101426.47;;;11.85;77.73
73063;BME280;61230;46.328;19.972;2023-10-09T07:04:06;101454.72;;;12.99;75.53
73063;BME280;61230;46.328;19.972;2023-10-09T07:06:48;101450.22;;;13.11;75.58
73063;BME280;61230;46.328;19.972;2023-10-09T07:09:18;101447.81;;;12.87;74.70
73063;BME280;61230;46.328;19.972;2023-10-09T07:11:49;101441.94;;;13.25;77.29
73063;BME280;61230;46.328;19.972;2023-10-09T07:14:21;101445.75;;;13.11;72.35
73063;BME280;61230;46.328;19.972;2023-10-09T07:17:03;101384.62;;;12.75;71.24
73063;BME280;61230;46.328;19.972;2023-10-09T07:19:44;101425.25;;;12.83;71.06
73063;BME280;61230;46.328;19.972;2023-10-09T07:22:15;101419.59;;;13.48;72.95
73063;BME280;61230;46.328;19.972;2023-10-09T07:25:07;101416.78;;;13.31;70.08
73063;BME280;61230;46.328;19.972;2023-10-09T07:27:55;101397.38;;;13.60;72.95
73063;BME280;61230;46.328;19.972;2023-10-09T07:30:27;101394.00;;;13.49;66.33
73063;BME280;61230;46.328;19.972;2023-10-09T07:33:04;101394.72;;;13.11;63.91
73063;BME280;61230;46.328;19.972;2023-10-09T07:35:46;101397.97;;;13.24;60.44
73063;BME280;61230;46.328;19.972;2023-10-09T07:38:21;101391.03;;;13.33;60.85
73063;BME280;61230;46.328;19.972;2023-10-09T07:41:03;101351.78;;;12.88;63.14
73063;BME280;61230;46.328;19.972;2023-10-09T07:43:38;101393.06;;;13.69;60.39
73063;BME280;61230;46.328;19.972;2023-10-09T07:46:08;101392.47;;;13.46;59.40
73063;BME280;61230;46.328;19.972;2023-10-09T07:49:02;101385.84;;;14.28;64.38
73063;BME280;61230;46.328;19.972;2023-10-09T07:51:37;101404.62;;;13.77;51.42
73063;BME280;61230;46.328;19.972;2023-10-09T07:54:05;101383.66;;;13.27;52.82
73063;BME280;61230;46.328;19.972;2023-10-09T07:56:38;101389.44;;;13.51;54.50
73063;BME280;61230;46.328;19.972;2023-10-09T07:59:10;101384.59;;;13.94;59.15
73063;BME280;61230;46.328;19.972;2023-10-09T08:01:43;101375.41;;;13.79;55.84
73063;BME280;61230;46.328;19.972;2023-10-09T08:04:34;101386.41;;;14.22;58.48
73063;BME280;61230;46.328;19.972;2023-10-09T08:07:09;101381.81;;;14.05;56.74
73063;BME280;61230;46.328;19.972;2023-10-09T08:09:57;101367.19;;;14.11;54.39
73063;BME280;61230;46.328;19.972;2023-10-09T08:12:43;101329.47;;;13.70;51.97
73063;BME280;61230;46.328;19.972;2023-10-09T08:15:18;101365.53;;;14.00;52.71
73063;BME280;61230;46.328;19.972;2023-10-09T08:17:56;101313.28;;;14.12;55.39
73063;BME280;61230;46.328;19.972;2023-10-09T08:20:27;101354.72;;;14.69;55.80
73063;BME280;61230;46.328;19.972;2023-10-09T08:23:03;101354.38;;;14.35;49.44
73063;BME280;61230;46.328;19.972;2023-10-09T08:25:32;101347.09;;;14.93;55.66
73063;BME280;61230;46.328;19.972;2023-10-09T08:28:02;101308.06;;;15.13;54.89
73063;BME280;61230;46.328;19.972;2023-10-09T08:30:42;101339.78;;;15.32;49.94
73063;BME280;61230;46.328;19.972;2023-10-09T08:33:31;101341.25;;;15.17;50.62
73063;BME280;61230;46.328;19.972;2023-10-09T08:36:11;101301.44;;;15.44;51.20
73063;BME280;61230;46.328;19.972;2023-10-09T08:38:43;101347.31;;;15.64;47.69
73063;BME280;61230;46.328;19.972;2023-10-09T08:41:11;101344.94;;;15.61;49.96
73063;BME280;61230;46.328;19.972;2023-10-09T08:43:56;101305.91;;;15.88;47.82
73063;BME280;61230;46.328;19.972;2023-10-09T08:46:26;101321.22;;;15.59;49.32
73063;BME280;61230;46.328;19.972;2023-10-09T08:48:56;101324.47;;;15.53;45.57
73063;BME280;61230;46.328;19.972;2023-10-09T08:51:27;101315.16;;;15.39;43.34
73063;BME280;61230;46.328;19.972;2023-10-09T08:53:55;101309.97;;;15.47;45.48
73063;BME280;61230;46.328;19.972;2023-10-09T08:56:23;101287.94;;;15.65;42.85
73063;BME280;61230;46.328;19.972;2023-10-09T08:58:56;101280.69;;;15.92;45.14
73063;BME280;61230;46.328;19.972;2023-10-09T09:01:25;101241.25;;;15.72;45.03
73063;BME280;61230;46.328;19.972;2023-10-09T09:03:53;101274.03;;;15.88;45.52
73063;BME280;61230;46.328;19.972;2023-10-09T09:06:23;101261.06;;;15.85;46.12
73063;BME280;61230;46.328;19.972;2023-10-09T09:08:52;101255.59;;;15.87;46.89
73063;BME280;61230;46.328;19.972;2023-10-09T09:11:27;101256.19;;;15.98;41.81
73063;BME280;61230;46.328;19.972;2023-10-09T09:16:26;101249.12;;;16.58;45.52
73063;BME280;61230;46.328;19.972;2023-10-09T09:19:06;101256.72;;;16.95;44.59
73063;BME280;61230;46.328;19.972;2023-10-09T09:21:36;101266.59;;;16.43;38.47
73063;BME280;61230;46.328;19.972;2023-10-09T09:24:10;101257.28;;;16.65;43.76
73063;BME280;61230;46.328;19.972;2023-10-09T09:26:55;101207.50;;;16.41;42.46
73063;BME280;61230;46.328;19.972;2023-10-09T09:32:08;101232.28;;;16.84;43.02
73063;BME280;61230;46.328;19.972;2023-10-09T09:34:50;101231.97;;;16.95;43.55
73063;BME280;61230;46.328;19.972;2023-10-09T09:37:25;101226.72;;;17.11;44.92
73063;BME280;61230;46.328;19.972;2023-10-09T09:40:00;101216.06;;;17.11;42.28
73063;BME280;61230;46.328;19.972;2023-10-09T09:42:29;101213.25;;;17.12;41.50
73063;BME280;61230;46.328;19.972;2023-10-09T09:45:01;101193.09;;;16.94;37.95
73063;BME280;61230;46.328;19.972;2023-10-09T09:47:31;101193.97;;;16.27;39.53
73063;BME280;61230;46.328;19.972;2023-10-09T09:50:05;101193.75;;;16.88;41.59
73063;BME280;61230;46.328;19.972;2023-10-09T09:52:41;101184.09;;;16.87;42.67
73063;BME280;61230;46.328;19.972;2023-10-09T09:55:10;101179.09;;;16.84;38.88
73063;BME280;61230;46.328;19.972;2023-10-09T09:57:50;101175.25;;;16.70;39.67
73063;BME280;61230;46.328;19.972;2023-10-09T10:00:25;101174.94;;;16.39;38.92
73063;BME280;61230;46.328;19.972;2023-10-09T10:03:39;101173.59;;;16.01;38.58
73063;BME280;61230;46.328;19.972;2023-10-09T10:06:11;101169.72;;;15.70;39.74
73063;BME280;61230;46.328;19.972;2023-10-09T10:08:43;101177.88;;;15.51;39.71
73063;BME280;61230;46.328;19.972;2023-10-09T10:11:41;101170.66;;;15.61;39.31
73063;BME280;61230;46.328;19.972;2023-10-09T10:14:13;101152.78;;;15.89;41.61
73063;BME280;61230;46.328;19.972;2023-10-09T10:17:06;101145.19;;;15.94;40.46
73063;BME280;61230;46.328;19.972;2023-10-09T10:22:28;101130.62;;;16.40;41.75
73063;BME280;61230;46.328;19.972;2023-10-09T10:24:58;101113.31;;;16.78;42.47
73063;BME280;61230;46.328;19.972;2023-10-09T10:27:30;101097.72;;;16.83;40.77
73063;BME280;61230;46.328;19.972;2023-10-09T10:30:28;101097.38;;;16.94;42.11
73063;BME280;61230;46.328;19.972;2023-10-09T10:33:01;101089.22;;;17.03;41.10
73063;BME280;61230;46.328;19.972;2023-10-09T10:35:44;101090.22;;;17.35;44.07
73063;BME280;61230;46.328;19.972;2023-10-09T10:38:24;101086.53;;;17.76;42.17
73063;BME280;61230;46.328;19.972;2023-10-09T10:40:52;101086.78;;;17.97;44.98
73063;BME280;61230;46.328;19.972;2023-10-09T10:43:28;101079.41;;;17.44;37.83
73063;BME280;61230;46.328;19.972;2023-10-09T10:46:05;101038.53;;;17.29;36.87
73063;BME280;61230;46.328;19.972;2023-10-09T10:48:42;101027.31;;;17.66;39.58
73063;BME280;61230;46.328;19.972;2023-10-09T10:51:15;101063.09;;;17.47;37.88
73063;BME280;61230;46.328;19.972;2023-10-09T10:53:52;101057.44;;;17.66;39.54
73063;BME280;61230;46.328;19.972;2023-10-09T10:56:25;101066.75;;;17.62;37.82
73063;BME280;61230;46.328;19.972;2023-10-09T10:59:03;101062.59;;;17.68;37.51
73063;BME280;61230;46.328;19.972;2023-10-09T11:01:34;101058.38;;;17.82;40.47
73063;BME280;61230;46.328;19.972;2023-10-09T11:04:23;101011.59;;;17.32;36.78
73063;BME280;61230;46.328;19.972;2023-10-09T11:06:59;101041.50;;;17.58;37.68
73063;BME280;61230;46.328;19.972;2023-10-09T11:09:50;101046.16;;;17.40;37.88
73063;BME280;61230;46.328;19.972;2023-10-09T11:15:10;101041.16;;;17.61;39.20
73063;BME280;61230;46.328;19.972;2023-10-09T11:18:03;101043.75;;;17.77;40.25
73063;BME280;61230;46.328;19.972;2023-10-09T11:20:51;101041.75;;;17.79;40.76
73063;BME280;61230;46.328;19.972;2023-10-09T11:23:25;101031.47;;;17.76;39.72
73063;BME280;61230;46.328;19.972;2023-10-09T11:26:13;101023.81;;;17.65;39.35
73063;BME280;61230;46.328;19.972;2023-10-09T11:29:11;101018.38;;;17.43;36.59
73063;BME280;61230;46.328;19.972;2023-10-09T11:32:07;101017.03;;;17.55;40.03
73063;BME280;61230;46.328;19.972;2023-10-09T11:34:47;101018.81;;;17.78;41.53
73063;BME280;61230;46.328;19.972;2023-10-09T11:37:22;101012.16;;;17.74;39.16
73063;BME280;61230;46.328;19.972;2023-10-09T11:39:57;101005.06;;;17.98;39.23
73063;BME280;61230;46.328;19.972;2023-10-09T11:42:29;100996.59;;;17.94;37.22
73063;BME280;61230;46.328;19.972;2023-10-09T11:45:27;100987.09;;;17.53;35.96
73063;BME280;61230;46.328;19.972;2023-10-09T11:48:16;100979.16;;;17.84;40.47
73063;BME280;61230;46.328;19.972;2023-10-09T11:51:14;100967.38;;;17.78;36.69
73063;BME280;61230;46.328;19.972;2023-10-09T11:53:48;100960.16;;;18.17;39.39
73063;BME280;61230;46.328;19.972;2023-10-09T11:56:18;100955.44;;;18.27;38.67
73063;BME280;61230;46.328;19.972;2023-10-09T11:58:48;100956.69;;;18.39;40.22
73063;BME280;61230;46.328;19.972;2023-10-09T12:01:18;100942.50;;;18.16;36.93
73063;BME280;61230;46.328;19.972;2023-10-09T12:03:49;100954.94;;;18.01;37.59
73063;BME280;61230;46.328;19.972;2023-10-09T12:06:20;100953.19;;;18.39;40.17
73063;BME280;61230;46.328;19.972;2023-10-09T12:08:50;100943.84;;;18.20;35.82
73063;BME280;61230;46.328;19.972;2023-10-09T12:11:18;100936.84;;;18.19;38.65
73063;BME280;61230;46.328;19.972;2023-10-09T12:14:17;100930.56;;;18.35;40.08
73063;BME280;61230;46.328;19.972;2023-10-09T12:16:51;100927.12;;;18.04;38.19
73063;BME280;61230;46.328;19.972;2023-10-09T12:19:20;100918.59;;;18.08;38.21
73063;BME280;61230;46.328;19.972;2023-10-09T12:21:49;100912.50;;;18.22;39.09
73063;BME280;61230;46.328;19.972;2023-10-09T12:24:16;100908.31;;;18.28;39.92
73063;BME280;61230;46.328;19.972;2023-10-09T12:26:46;100864.16;;;17.88;36.96
73063;BME280;61230;46.328;19.972;2023-10-09T12:29:15;100906.38;;;18.22;37.06
73063;BME280;61230;46.328;19.972;2023-10-09T12:31:43;100892.75;;;18.17;38.06
73063;BME280;61230;46.328;19.972;2023-10-09T12:34:14;100895.75;;;18.14;39.85
73063;BME280;61230;46.328;19.972;2023-10-09T12:36:46;100892.62;;;17.88;38.46
73063;BME280;61230;46.328;19.972;2023-10-09T12:39:14;100893.41;;;17.96;38.62
73063;BME280;61230;46.328;19.972;2023-10-09T12:41:45;100880.50;;;18.08;38.77
73063;BME280;61230;46.328;19.972;2023-10-09T12:44:12;100878.59;;;17.94;40.67
73063;BME280;61230;46.328;19.972;2023-10-09T12:46:46;100855.88;;;17.83;39.15
73063;BME280;61230;46.328;19.972;2023-10-09T12:49:21;100868.59;;;17.96;39.18
73063;BME280;61230;46.328;19.972;2023-10-09T12:51:53;100869.25;;;17.98;41.46
73063;BME280;61230;46.328;19.972;2023-10-09T12:54:21;100835.59;;;17.59;41.45
73063;BME280;61230;46.328;19.972;2023-10-09T12:56:55;100857.25;;;17.79;40.09
73063;BME280;61230;46.328;19.972;2023-10-09T12:59:23;100859.28;;;17.69;41.01
73063;BME280;61230;46.328;19.972;2023-10-09T13:01:52;100861.78;;;17.70;42.91
73063;BME280;61230;46.328;19.972;2023-10-09T13:04:20;100856.47;;;17.70;43.39
73063;BME280;61230;46.328;19.972;2023-10-09T13:06:50;100857.16;;;17.64;43.45
73063;BME280;61230;46.328;19.972;2023-10-09T13:09:29;100851.88;;;17.48;42.75
73063;BME280;61230;46.328;19.972;2023-10-09T13:12:05;100847.81;;;17.68;44.94
73063;BME280;61230;46.328;19.972;2023-10-09T13:14:33;100849.81;;;17.66;43.83
73063;BME280;61230;46.328;19.972;2023-10-09T13:17:02;100850.66;;;17.67;44.79
73063;BME280;61230;46.328;19.972;2023-10-09T13:19:38;100856.56;;;17.46;43.48
73063;BME280;61230;46.328;19.972;2023-10-09T13:22:06;100851.59;;;17.43;44.50
73063;BME280;61230;46.328;19.972;2023-10-09T13:24:41;100840.69;;;17.30;44.10
73063;BME280;61230;46.328;19.972;2023-10-09T13:27:09;100857.47;;;17.31;45.57
73063;BME280;61230;46.328;19.972;2023-10-09T13:29:38;100860.00;;;17.24;45.55
73063;BME280;61230;46.328;19.972;2023-10-09T13:32:08;100862.69;;;17.16;45.76
73063;BME280;61230;46.328;19.972;2023-10-09T13:34:42;100850.34;;;17.23;44.26
73063;BME280;61230;46.328;19.972;2023-10-09T13:37:12;100847.50;;;17.33;47.31
73063;BME280;61230;46.328;19.972;2023-10-09T13:39:41;100844.50;;;17.66;48.62